Du har inga inställningar för hoppväder.nu

Hoppväder.nu

Senast uppdaterat 06:04

UTC-tid

2019-11-21 kl. 05:04


Sol och måne

Solen går upp 8:05 och går ner 15:36 (beräknade cirkatider)
Nästa fullmåne blir om 21 dagar (2019-12-12)

METAR

ESMX (Växjö)
(14 minuter sedan)
ESMX 210450Z 10005KT 030V180 9999 OVC004 08/08 Q1018=



ESMT (Halmstad)
(14 minuter sedan)
ESMT 210450Z AUTO 12011KT 9999 BKN008/// OVC011/// 08/06 Q1017=



ESGJ (Jönköping)
(14 minuter sedan)
ESGJ 210450Z AUTO 10006KT 4400 -DZ BKN004/// OVC006/// 06/06 Q1019=



ESMK (Everöd)
(14 minuter sedan)
ESMK 210450Z 12008KT 4000 BR FEW002 OVC003 08/08 Q1017=






TAF

ESMX (Växjö)
(34 minuter sedan)
ESMX 210430Z 2105/2112 10008KT 5000 OVC003 TEMPO 2105/2112 2000 -RADZ BR BKN005=



ESMT (Halmstad)
(95 minuter sedan)
ESMT 210329Z 2104/2112 11008KT 9999 BKN008 TEMPO 2104/2112 4000 -RADZ BR SCT008 BKN012=



ESGJ (Jönköping)
(34 minuter sedan)
ESGJ 210430Z 2105/2112 11009KT 8000 OVC007 TEMPO 2105/2112 2000 DZ BR BKN004=



ESMK (Everöd)
(34 minuter sedan)
ESMK 210430Z 2105/2112 12010KT 6000 BKN008 TEMPO 2105/2112 2000 -RADZ BR BKN004=





Kodnycklar till TAF och METAR






LHP

(Feringe är område K2c i Sydöstra delen)







Spotting

Hur fungerar spotthjälpen och Vindkartan?

Markvind är ca 0 m/s.
Vind på 600 m ca 0 m/s.
Vind på 1500 m ca 0 m/s.
Vind på 3000 m ca 0 m/s.
Filip Helge flyger ca 41 m/s över marken på finalen.
Du driver ca 0 m bakåt i frifall. (0 m)
Lämplig spot är 7 sekunder eller 288 m innan gropen.
(-7s eller -288 m)
För små grupper eller ensamhoppare bör man vänta 4-5 sekunder mellan grupperna.
För större grupper bör man vänta 7-9 sekunder mellan grupperna.


Vindkartan

Senast uppdaterad 06:04




All data kommer från LFV.se